Time;durP1;ratioP1;P1;durP2;ratioP2;P2;SDS_P1;SDS_P2;PMS_P1;PMS_P2;Temp;Humidity;BMP_temperature;BMP_pressure;BME280_temperature;BME280_humidity;BME280_pressure;Samples;Min_cycle;Max_cycle;Signal;HPM_P1;HPM_P2
2022/08/29 00:00:40;;;;;;;10.50;2.80;;;;;;;;;;5052465;28;20025;-64
2022/08/29 00:03:05;;;;;;;6.28;2.65;;;;;;;;;;5052610;28;20037;-64
2022/08/29 00:05:34;;;;;;;5.45;2.20;;;;;;;;;;5052591;28;20456;-64
2022/08/29 00:08:00;;;;;;;9.73;2.80;;;;;;;;;;5052608;28;20021;-66
2022/08/29 00:10:28;;;;;;;10.77;2.67;;;;;;;;;;5052603;28;20399;-70
2022/08/29 00:12:54;;;;;;;8.23;2.33;;;;;;;;;;5052679;28;20036;-70
2022/08/29 00:15:20;;;;;;;7.80;2.35;;;;;;;;;;5052200;28;20036;-64
2022/08/29 00:17:47;;;;;;;8.85;2.63;;;;;;;;;;5052290;28;20017;-64
2022/08/29 00:20:17;;;;;;;7.43;2.50;;;;;;;;;;5052536;28;20028;-65
2022/08/29 00:22:43;;;;;;;9.93;3.05;;;;;;;;;;5052344;28;20025;-65
2022/08/29 00:25:11;;;;;;;8.45;2.90;;;;;;;;;;5052347;28;20032;-71
2022/08/29 00:27:36;;;;;;;9.23;2.83;;;;;;;;;;5052056;28;20104;-63
2022/08/29 00:30:04;;;;;;;9.52;2.70;;;;;;;;;;5052452;28;20057;-65
2022/08/29 00:32:33;;;;;;;8.98;2.95;;;;;;;;;;5052305;28;20534;-68
2022/08/29 00:35:11;;;;;;;9.25;3.25;;;;;;;;;;5052258;28;20029;-65
2022/08/29 00:37:36;;;;;;;9.00;2.92;;;;;;;;;;5052256;28;20078;-68
2022/08/29 00:40:05;;;;;;;8.05;2.40;;;;;;;;;;5052332;28;20029;-69
2022/08/29 00:42:31;;;;;;;10.23;4.15;;;;;;;;;;5046967;28;20571;-70
2022/08/29 00:44:56;;;;;;;8.65;2.85;;;;;;;;;;5012546;28;20120;-69
2022/08/29 00:47:28;;;;;;;16.48;4.45;;;;;;;;;;5012686;28;20032;-67
2022/08/29 00:49:56;;;;;;;8.52;2.90;;;;;;;;;;5013746;28;20096;-67
2022/08/29 00:52:33;;;;;;;8.50;2.58;;;;;;;;;;5016256;28;20038;-67
2022/08/29 00:55:02;;;;;;;9.70;3.40;;;;;;;;;;5016308;28;20052;-65
2022/08/29 00:57:30;;;;;;;8.82;3.00;;;;;;;;;;5016222;28;20087;-66
2022/08/29 00:59:56;;;;;;;8.32;3.13;;;;;;;;;;5016194;28;20018;-67
2022/08/29 01:02:23;;;;;;;7.72;2.60;;;;;;;;;;5015986;28;20029;-65
2022/08/29 01:04:49;;;;;;;9.80;2.90;;;;;;;;;;5016128;28;20495;-64
2022/08/29 01:07:14;;;;;;;13.15;2.80;;;;;;;;;;5016075;28;20053;-65
2022/08/29 01:09:42;;;;;;;11.85;2.75;;;;;;;;;;5015949;28;20026;-68
2022/08/29 01:12:17;;;;;;;16.60;3.20;;;;;;;;;;5015888;28;20030;-66
2022/08/29 01:14:46;;;;;;;14.75;3.10;;;;;;;;;;5015988;28;20030;-65
2022/08/29 01:17:15;;;;;;;8.23;2.83;;;;;;;;;;5015894;28;20033;-68
2022/08/29 01:19:59;;;;;;;13.75;3.42;;;;;;;;;;5015903;28;20133;-65
2022/08/29 01:22:40;;;;;;;15.65;3.50;;;;;;;;;;5015786;28;20081;-64
2022/08/29 01:25:08;;;;;;;;;;;;;;;;;;5016232;28;20053;-69
2022/08/29 01:27:39;;;;;;;9.15;3.03;;;;;;;;;;5015548;28;20004;-67
2022/08/29 01:30:06;;;;;;;9.60;2.63;;;;;;;;;;5015823;28;20037;-66
2022/08/29 01:32:31;;;;;;;8.95;2.60;;;;;;;;;;5015697;28;20030;-66
2022/08/29 01:34:57;;;;;;;11.80;2.88;;;;;;;;;;5015646;28;20029;-67
2022/08/29 01:37:27;;;;;;;11.95;2.70;;;;;;;;;;5015639;28;20026;-66
2022/08/29 01:39:52;;;;;;;11.23;2.78;;;;;;;;;;5015401;28;20160;-66
2022/08/29 01:42:21;;;;;;;10.07;2.90;;;;;;;;;;5016344;28;20133;-67
2022/08/29 01:44:56;;;;;;;11.73;2.80;;;;;;;;;;5055337;28;20054;-69
2022/08/29 01:47:25;;;;;;;8.55;2.70;;;;;;;;;;5055230;28;20067;-66
2022/08/29 01:49:51;;;;;;;11.57;2.97;;;;;;;;;;5054927;28;20025;-64
2022/08/29 01:52:16;;;;;;;13.43;2.83;;;;;;;;;;5054934;28;20364;-64
2022/08/29 01:54:43;;;;;;;9.85;3.00;;;;;;;;;;5054658;28;20025;-64
2022/08/29 01:57:10;;;;;;;7.20;2.97;;;;;;;;;;5053682;28;20386;-65
2022/08/29 01:59:36;;;;;;;14.95;2.70;;;;;;;;;;5054577;28;20016;-64
2022/08/29 02:02:04;;;;;;;13.20;3.38;;;;;;;;;;5053900;28;20112;-66
2022/08/29 02:04:30;;;;;;;11.60;3.22;;;;;;;;;;5054673;28;20040;-64
2022/08/29 02:06:56;;;;;;;11.77;3.60;;;;;;;;;;5054777;28;20025;-64
2022/08/29 02:09:22;;;;;;;8.82;3.15;;;;;;;;;;5054700;28;20075;-64
2022/08/29 02:11:48;;;;;;;9.80;3.40;;;;;;;;;;5054627;28;20331;-70
2022/08/29 02:14:14;;;;;;;9.52;3.00;;;;;;;;;;5054587;28;20043;-70
2022/08/29 02:16:40;;;;;;;7.97;3.25;;;;;;;;;;5054450;28;20492;-64
2022/08/29 02:19:06;;;;;;;9.75;3.00;;;;;;;;;;5054482;28;20116;-68
2022/08/29 02:21:32;;;;;;;12.20;2.92;;;;;;;;;;5054675;28;20376;-65
2022/08/29 02:24:00;;;;;;;10.25;3.28;;;;;;;;;;5054149;28;20033;-70
2022/08/29 02:26:25;;;;;;;9.88;3.38;;;;;;;;;;5054395;28;20032;-64
2022/08/29 02:28:51;;;;;;;9.75;3.03;;;;;;;;;;5054340;28;20152;-68
2022/08/29 02:31:21;;;;;;;9.75;3.30;;;;;;;;;;5054271;28;20486;-70
2022/08/29 02:33:47;;;;;;;16.65;3.58;;;;;;;;;;5054189;28;20040;-65
2022/08/29 02:36:13;;;;;;;8.52;3.50;;;;;;;;;;5054258;28;20040;-66
2022/08/29 02:38:38;;;;;;;9.32;2.85;;;;;;;;;;5053938;28;20029;-64
2022/08/29 02:41:04;;;;;;;13.90;3.10;;;;;;;;;;5042494;28;20029;-64
2022/08/29 02:43:30;;;;;;;12.35;3.35;;;;;;;;;;5023007;28;20532;-67
2022/08/29 02:45:56;;;;;;;9.90;3.22;;;;;;;;;;5014217;28;20087;-64
2022/08/29 02:48:21;;;;;;;9.32;3.00;;;;;;;;;;5014069;28;20030;-65
2022/08/29 02:50:50;;;;;;;10.13;3.42;;;;;;;;;;5014202;28;20034;-64
2022/08/29 02:53:18;;;;;;;10.57;2.72;;;;;;;;;;5014026;28;20041;-67
2022/08/29 02:55:47;;;;;;;10.20;3.03;;;;;;;;;;5014000;28;20029;-69
2022/08/29 02:58:13;;;;;;;11.50;3.10;;;;;;;;;;5014097;28;20044;-68
2022/08/29 03:00:40;;;;;;;14.77;6.55;;;;;;;;;;5013868;28;20046;-64
2022/08/29 03:03:05;;;;;;;15.65;6.78;;;;;;;;;;5013918;28;20026;-64
2022/08/29 03:05:33;;;;;;;10.70;3.58;;;;;;;;;;5013854;28;20025;-66
2022/08/29 03:08:00;;;;;;;9.38;3.38;;;;;;;;;;5013659;28;20034;-71
2022/08/29 03:10:26;;;;;;;10.05;3.25;;;;;;;;;;5013873;28;20109;-70
2022/08/29 03:12:51;;;;;;;7.57;3.10;;;;;;;;;;5013677;28;20064;-68
2022/08/29 03:15:18;;;;;;;11.52;3.20;;;;;;;;;;5013731;28;20127;-68
2022/08/29 03:17:45;;;;;;;9.25;3.45;;;;;;;;;;5013654;28;20022;-68
2022/08/29 03:20:11;;;;;;;9.30;3.15;;;;;;;;;;5013624;28;20026;-67
2022/08/29 03:22:38;;;;;;;8.15;2.97;;;;;;;;;;5013363;28;20033;-67
2022/08/29 03:25:06;;;;;;;14.38;3.45;;;;;;;;;;5013577;28;20024;-63
2022/08/29 03:27:33;;;;;;;10.45;3.95;;;;;;;;;;5013328;28;20018;-68
2022/08/29 03:29:58;;;;;;;10.20;3.15;;;;;;;;;;5013417;28;20035;-65
2022/08/29 03:32:25;;;;;;;15.52;3.95;;;;;;;;;;5013408;28;20036;-68
2022/08/29 03:34:51;;;;;;;10.88;3.15;;;;;;;;;;5013444;28;20026;-69
2022/08/29 03:37:17;;;;;;;14.55;3.63;;;;;;;;;;5013182;28;20101;-65
2022/08/29 03:39:42;;;;;;;12.50;3.70;;;;;;;;;;5013164;28;20025;-69
2022/08/29 03:42:08;;;;;;;10.27;3.63;;;;;;;;;;5013101;28;20141;-69
2022/08/29 03:44:35;;;;;;;15.45;3.70;;;;;;;;;;5013026;28;20092;-65
2022/08/29 03:47:02;;;;;;;13.70;4.20;;;;;;;;;;5013225;28;20022;-68
2022/08/29 03:49:27;;;;;;;13.82;3.67;;;;;;;;;;5013224;28;20034;-65
2022/08/29 03:51:53;;;;;;;8.88;3.00;;;;;;;;;;5012934;28;20038;-67
2022/08/29 03:54:19;;;;;;;11.18;3.42;;;;;;;;;;5013040;28;20026;-69
2022/08/29 03:56:45;;;;;;;10.27;3.47;;;;;;;;;;5013150;28;20033;-66
2022/08/29 03:59:11;;;;;;;16.40;4.35;;;;;;;;;;5013030;28;20022;-66
2022/08/29 04:01:37;;;;;;;11.55;3.63;;;;;;;;;;5012872;28;20415;-64
2022/08/29 04:04:03;;;;;;;10.93;3.53;;;;;;;;;;5013045;28;20033;-63
2022/08/29 04:06:28;;;;;;;11.13;3.80;;;;;;;;;;5012780;28;20435;-64
2022/08/29 04:08:55;;;;;;;10.18;3.58;;;;;;;;;;5013010;28;20018;-70
2022/08/29 04:11:23;;;;;;;11.18;3.55;;;;;;;;;;5013026;28;20022;-67
2022/08/29 04:13:50;;;;;;;11.52;3.70;;;;;;;;;;5012575;28;20030;-67
2022/08/29 04:16:22;;;;;;;11.80;3.70;;;;;;;;;;5012871;28;20422;-64
2022/08/29 04:18:47;;;;;;;10.68;3.90;;;;;;;;;;5012941;28;20527;-66
2022/08/29 04:21:14;;;;;;;10.93;3.50;;;;;;;;;;5012434;28;20029;-67
2022/08/29 04:23:40;;;;;;;14.13;3.28;;;;;;;;;;5012984;28;20382;-67
2022/08/29 04:26:14;;;;;;;14.68;3.58;;;;;;;;;;5016789;28;20428;-65
2022/08/29 04:28:40;;;;;;;9.85;3.67;;;;;;;;;;5016641;28;21095;-69
2022/08/29 04:31:11;;;;;;;15.82;4.85;;;;;;;;;;5016786;28;20072;-64
2022/08/29 04:33:37;;;;;;;16.00;5.50;;;;;;;;;;5016736;28;20022;-69
2022/08/29 04:36:04;;;;;;;13.27;5.00;;;;;;;;;;5016576;28;20041;-64
2022/08/29 04:38:31;;;;;;;11.85;4.65;;;;;;;;;;5016411;28;20029;-64
2022/08/29 04:40:56;;;;;;;13.70;4.53;;;;;;;;;;5016663;28;20029;-68
2022/08/29 04:43:22;;;;;;;13.00;4.82;;;;;;;;;;5016319;28;20050;-69
2022/08/29 04:45:54;;;;;;;19.15;5.60;;;;;;;;;;5016521;28;20113;-63
2022/08/29 04:48:19;;;;;;;14.85;4.78;;;;;;;;;;5016475;28;20030;-66
2022/08/29 04:50:51;;;;;;;12.88;4.97;;;;;;;;;;5019842;28;20040;-69
2022/08/29 04:53:17;;;;;;;15.40;4.88;;;;;;;;;;5036161;28;20109;-64
2022/08/29 04:55:42;;;;;;;14.95;5.80;;;;;;;;;;5035891;28;20447;-64
2022/08/29 04:58:07;;;;;;;13.18;5.00;;;;;;;;;;5036141;28;20021;-67
2022/08/29 05:00:35;;;;;;;16.83;5.40;;;;;;;;;;5034697;28;20049;-64
2022/08/29 05:03:01;;;;;;;12.40;5.68;;;;;;;;;;5032619;28;20036;-64
2022/08/29 05:05:26;;;;;;;16.13;5.70;;;;;;;;;;5034107;28;20051;-65
2022/08/29 05:07:52;;;;;;;13.30;5.35;;;;;;;;;;5033994;28;20037;-65
2022/08/29 05:10:20;;;;;;;14.55;6.25;;;;;;;;;;5034323;28;20048;-64
2022/08/29 05:12:45;;;;;;;14.65;5.72;;;;;;;;;;5034615;28;20464;-69
2022/08/29 05:15:12;;;;;;;16.88;6.05;;;;;;;;;;5035013;28;20021;-69
2022/08/29 05:17:38;;;;;;;15.05;6.07;;;;;;;;;;5035021;28;20057;-67
2022/08/29 05:20:07;;;;;;;16.05;5.88;;;;;;;;;;5035306;28;20060;-66
2022/08/29 05:22:33;;;;;;;13.82;6.15;;;;;;;;;;5035559;28;20033;-65
2022/08/29 05:24:59;;;;;;;10.13;5.03;;;;;;;;;;5030140;28;20026;-64
2022/08/29 05:27:25;;;;;;;14.27;5.95;;;;;;;;;;5025914;28;20048;-69
2022/08/29 05:29:51;;;;;;;15.93;5.65;;;;;;;;;;5032470;28;20025;-64
2022/08/29 05:32:18;;;;;;;11.95;5.50;;;;;;;;;;5032824;28;20029;-63
2022/08/29 05:34:44;;;;;;;14.52;5.45;;;;;;;;;;5032938;28;20034;-64
2022/08/29 05:37:16;;;;;;;12.27;4.93;;;;;;;;;;5032720;28;20030;-64
2022/08/29 05:39:42;;;;;;;9.10;5.13;;;;;;;;;;5032498;28;20021;-65
2022/08/29 05:42:09;;;;;;;12.25;5.22;;;;;;;;;;5032223;28;20076;-63
2022/08/29 05:44:35;;;;;;;11.93;5.07;;;;;;;;;;5031651;28;20040;-64
2022/08/29 05:47:02;;;;;;;11.30;5.38;;;;;;;;;;5032022;28;20037;-64
2022/08/29 05:49:27;;;;;;;14.98;5.05;;;;;;;;;;5032236;28;20025;-66
2022/08/29 05:51:54;;;;;;;15.70;5.85;;;;;;;;;;5032310;28;20040;-67
2022/08/29 05:54:21;;;;;;;12.68;6.18;;;;;;;;;;5032012;28;20061;-65
2022/08/29 05:56:47;;;;;;;19.50;5.72;;;;;;;;;;5032635;28;20022;-63
2022/08/29 05:59:13;;;;;;;13.30;5.57;;;;;;;;;;5032513;28;20025;-67
2022/08/29 06:01:39;;;;;;;16.38;6.25;;;;;;;;;;5031357;28;20057;-64
2022/08/29 06:04:05;;;;;;;14.48;5.60;;;;;;;;;;5032109;28;20033;-66
2022/08/29 06:06:30;;;;;;;16.25;5.32;;;;;;;;;;5039677;28;20017;-64
2022/08/29 06:08:57;;;;;;;16.35;5.40;;;;;;;;;;5034939;28;20029;-64
2022/08/29 06:11:27;;;;;;;13.82;5.32;;;;;;;;;;5034672;28;20112;-65
2022/08/29 06:13:52;;;;;;;12.00;4.93;;;;;;;;;;5034561;28;20022;-65
2022/08/29 06:16:20;;;;;;;15.10;5.53;;;;;;;;;;5034460;28;20073;-67
2022/08/29 06:18:45;;;;;;;10.00;4.72;;;;;;;;;;5034765;28;20025;-66
2022/08/29 06:21:12;;;;;;;12.95;5.30;;;;;;;;;;5034557;28;20423;-69
2022/08/29 06:23:39;;;;;;;14.85;5.18;;;;;;;;;;5034336;28;20037;-68
2022/08/29 06:26:06;;;;;;;15.98;5.10;;;;;;;;;;5034389;28;20067;-67
2022/08/29 06:28:33;;;;;;;13.05;5.10;;;;;;;;;;5034066;28;20098;-65
2022/08/29 06:31:13;;;;;;;13.10;5.15;;;;;;;;;;5034222;28;20029;-63
2022/08/29 06:33:39;;;;;;;13.13;5.00;;;;;;;;;;5030897;28;20481;-69
2022/08/29 06:36:06;;;;;;;13.57;4.55;;;;;;;;;;5033842;28;20180;-64
2022/08/29 06:38:32;;;;;;;9.38;4.55;;;;;;;;;;5033851;28;20025;-64
2022/08/29 06:41:02;;;;;;;12.35;5.13;;;;;;;;;;5033896;28;20030;-67
2022/08/29 06:43:28;;;;;;;8.07;4.25;;;;;;;;;;5023245;28;20054;-66
2022/08/29 06:45:53;;;;;;;7.55;4.35;;;;;;;;;;5013610;28;20098;-64
2022/08/29 06:48:19;;;;;;;12.93;5.38;;;;;;;;;;5013421;28;20495;-68
2022/08/29 06:50:44;;;;;;;17.77;5.22;;;;;;;;;;5013578;28;20061;-65
2022/08/29 06:53:10;;;;;;;13.57;4.25;;;;;;;;;;5014135;28;20473;-68
2022/08/29 06:55:36;;;;;;;13.25;5.50;;;;;;;;;;5032804;28;20096;-65
2022/08/29 06:58:03;;;;;;;13.65;4.78;;;;;;;;;;5033674;28;20035;-68
2022/08/29 07:00:29;;;;;;;11.20;4.88;;;;;;;;;;5033458;28;20060;-64
2022/08/29 07:02:55;;;;;;;11.02;4.63;;;;;;;;;;5034584;28;20340;-69
2022/08/29 07:05:22;;;;;;;11.63;4.43;;;;;;;;;;5053304;28;20556;-65
2022/08/29 07:07:49;;;;;;;16.98;5.43;;;;;;;;;;5053177;28;20384;-64
2022/08/29 07:10:14;;;;;;;10.18;4.07;;;;;;;;;;5053294;28;20353;-68
2022/08/29 07:12:40;;;;;;;12.85;4.60;;;;;;;;;;5053261;28;20052;-68
2022/08/29 07:15:06;;;;;;;14.55;4.70;;;;;;;;;;5052605;28;20017;-66
2022/08/29 07:17:32;;;;;;;16.67;5.00;;;;;;;;;;5052849;28;20103;-65
2022/08/29 07:19:58;;;;;;;12.23;4.30;;;;;;;;;;5053041;28;20029;-67
2022/08/29 07:22:25;;;;;;;12.82;5.00;;;;;;;;;;5052900;28;20047;-68
2022/08/29 07:24:51;;;;;;;10.20;3.95;;;;;;;;;;5052954;28;20060;-65
2022/08/29 07:27:17;;;;;;;9.43;3.83;;;;;;;;;;5052888;28;20103;-64
2022/08/29 07:29:42;;;;;;;13.00;4.47;;;;;;;;;;5052600;28;20132;-64
2022/08/29 07:32:08;;;;;;;11.43;4.47;;;;;;;;;;5052946;28;20024;-69
2022/08/29 07:34:35;;;;;;;9.45;4.13;;;;;;;;;;5052591;28;20036;-65
2022/08/29 07:37:01;;;;;;;12.40;4.10;;;;;;;;;;5053160;28;20321;-66
2022/08/29 07:39:26;;;;;;;13.43;4.50;;;;;;;;;;5052617;28;20029;-64
2022/08/29 07:41:52;;;;;;;13.27;4.03;;;;;;;;;;5052378;28;20033;-65
2022/08/29 07:44:18;;;;;;;13.32;4.47;;;;;;;;;;5018524;28;20068;-63
2022/08/29 07:46:44;;;;;;;9.48;4.40;;;;;;;;;;5013070;28;20018;-66
2022/08/29 07:49:11;;;;;;;8.85;4.18;;;;;;;;;;5012827;28;20037;-65
2022/08/29 07:51:37;;;;;;;9.55;4.05;;;;;;;;;;5012807;28;20066;-65
2022/08/29 07:54:05;;;;;;;10.13;4.47;;;;;;;;;;5012948;28;20182;-64
2022/08/29 07:56:33;;;;;;;13.02;4.28;;;;;;;;;;5012745;28;20370;-67
2022/08/29 07:58:59;;;;;;;10.70;4.15;;;;;;;;;;5011839;28;20018;-66
2022/08/29 08:01:25;;;;;;;8.15;3.58;;;;;;;;;;5012629;28;20050;-63
2022/08/29 08:03:52;;;;;;;8.77;3.70;;;;;;;;;;5012644;28;20045;-64
2022/08/29 08:06:20;;;;;;;8.65;3.72;;;;;;;;;;5012500;28;20022;-64
2022/08/29 08:08:45;;;;;;;14.40;3.95;;;;;;;;;;5012625;28;20105;-65
2022/08/29 08:11:11;;;;;;;9.48;4.00;;;;;;;;;;5024670;28;20072;-67
2022/08/29 08:13:37;;;;;;;14.82;4.03;;;;;;;;;;5031886;28;20029;-66
2022/08/29 08:16:08;;;;;;;6.50;3.20;;;;;;;;;;5032250;28;20029;-68
2022/08/29 08:18:36;;;;;;;10.25;3.90;;;;;;;;;;5032330;28;20041;-66
2022/08/29 08:21:02;;;;;;;8.88;3.72;;;;;;;;;;5032045;28;20029;-64
2022/08/29 08:23:28;;;;;;;9.48;3.70;;;;;;;;;;5032272;28;20034;-64
2022/08/29 08:25:54;;;;;;;8.63;3.80;;;;;;;;;;5032307;28;20052;-64
2022/08/29 08:28:19;;;;;;;13.38;4.93;;;;;;;;;;5031825;28;20033;-65
2022/08/29 08:30:45;;;;;;;9.70;4.05;;;;;;;;;;5031932;28;20029;-63
2022/08/29 08:33:11;;;;;;;12.25;3.80;;;;;;;;;;5032095;28;20033;-68
2022/08/29 08:35:37;;;;;;;7.90;3.58;;;;;;;;;;5031889;28;20026;-65
2022/08/29 08:38:05;;;;;;;9.15;3.95;;;;;;;;;;5032216;28;20100;-63
2022/08/29 08:40:31;;;;;;;7.05;3.63;;;;;;;;;;5031788;28;20021;-65
2022/08/29 08:43:01;;;;;;;7.38;3.70;;;;;;;;;;5025592;28;20150;-65
2022/08/29 08:45:37;;;;;;;7.63;3.67;;;;;;;;;;5012335;28;20088;-67
2022/08/29 08:48:08;;;;;;;9.43;3.55;;;;;;;;;;5012261;28;20038;-64
2022/08/29 08:50:33;;;;;;;8.35;3.42;;;;;;;;;;5012335;28;20132;-64
2022/08/29 08:53:08;;;;;;;10.98;3.53;;;;;;;;;;5012522;28;20065;-65
2022/08/29 08:55:44;;;;;;;7.65;3.33;;;;;;;;;;5012021;28;20037;-64
2022/08/29 08:58:25;;;;;;;10.70;3.97;;;;;;;;;;5012332;28;20044;-68
2022/08/29 09:01:11;;;;;;;7.68;3.20;;;;;;;;;;5012339;28;20033;-64
2022/08/29 09:03:55;;;;;;;7.20;3.33;;;;;;;;;;5011963;28;20034;-68
2022/08/29 09:06:57;;;;;;;7.78;3.15;;;;;;;;;;5012049;28;20094;-64
2022/08/29 09:09:44;;;;;;;7.38;3.30;;;;;;;;;;5012244;28;20042;-64
2022/08/29 09:12:24;;;;;;;5.93;3.10;;;;;;;;;;5015940;28;20033;-64
2022/08/29 09:15:08;;;;;;;10.75;3.30;;;;;;;;;;5015854;28;20030;-63
2022/08/29 09:17:45;;;;;;;10.73;3.45;;;;;;;;;;5015680;28;20032;-64
2022/08/29 09:20:18;;;;;;;6.22;2.95;;;;;;;;;;5015693;28;20022;-68
2022/08/29 09:22:56;;;;;;;7.80;3.50;;;;;;;;;;5029008;28;20029;-63
2022/08/29 09:25:22;;;;;;;10.15;3.00;;;;;;;;;;5033349;28;20087;-64
2022/08/29 09:27:49;;;;;;;5.70;3.28;;;;;;;;;;5019499;28;20045;-66
2022/08/29 09:30:26;;;;;;;5.78;2.90;;;;;;;;;;5020142;28;20083;-64
2022/08/29 09:33:00;;;;;;;4.55;2.70;;;;;;;;;;5034146;28;20079;-64
2022/08/29 09:35:35;;;;;;;7.03;3.15;;;;;;;;;;5035038;28;20022;-64
2022/08/29 09:38:06;;;;;;;6.60;4.13;;;;;;;;;;5034980;28;20017;-63
2022/08/29 09:40:46;;;;;;;10.48;4.68;;;;;;;;;;5034728;28;20041;-64
2022/08/29 09:43:41;;;;;;;6.57;3.40;;;;;;;;;;5026737;28;20045;-63
2022/08/29 09:46:09;;;;;;;5.80;3.88;;;;;;;;;;5018459;28;20025;-65
2022/08/29 09:48:47;;;;;;;9.18;4.03;;;;;;;;;;5034790;28;20061;-67
2022/08/29 09:51:33;;;;;;;6.97;3.58;;;;;;;;;;5034231;28;20025;-63
2022/08/29 09:54:26;;;;;;;6.78;3.20;;;;;;;;;;5014747;28;20057;-68
2022/08/29 09:56:57;;;;;;;7.78;3.15;;;;;;;;;;5014919;28;20029;-64
2022/08/29 09:59:29;;;;;;;6.22;2.83;;;;;;;;;;5014777;28;20093;-65
2022/08/29 10:02:27;;;;;;;10.13;3.40;;;;;;;;;;5014679;28;20026;-64
2022/08/29 10:05:00;;;;;;;4.63;2.60;;;;;;;;;;5014817;28;20030;-68
2022/08/29 10:07:43;;;;;;;7.60;2.55;;;;;;;;;;5014488;28;20101;-69
2022/08/29 10:10:18;;;;;;;5.88;2.40;;;;;;;;;;5014799;28;20091;-64
2022/08/29 10:13:06;;;;;;;6.93;2.20;;;;;;;;;;5014769;28;20108;-69
2022/08/29 10:15:40;;;;;;;5.78;2.15;;;;;;;;;;5014619;28;20040;-69
2022/08/29 10:18:30;;;;;;;3.15;1.67;;;;;;;;;;5022284;28;20033;-64
2022/08/29 10:21:09;;;;;;;6.40;1.98;;;;;;;;;;5027865;28;20092;-66
2022/08/29 10:23:59;;;;;;;3.42;1.88;;;;;;;;;;5033715;28;20441;-63
2022/08/29 10:26:43;;;;;;;;;;;;;;;;;;5034170;28;20033;-63
2022/08/29 10:29:25;;;;;;;5.95;1.42;;;;;;;;;;5033996;28;19913;-63
2022/08/29 10:32:22;;;;;;;2.42;1.42;;;;;;;;;;5033995;28;20502;-69
2022/08/29 10:34:59;;;;;;;2.30;1.38;;;;;;;;;;4992232;28;20046;-63
2022/08/29 10:37:51;;;;;;;3.42;1.60;;;;;;;;;;4992164;28;20401;-66
2022/08/29 10:40:36;;;;;;;2.40;1.20;;;;;;;;;;4991915;28;20506;-68
2022/08/29 10:43:11;;;;;;;2.10;1.20;;;;;;;;;;4985315;28;20051;-64
2022/08/29 10:46:05;;;;;;;2.33;1.02;;;;;;;;;;4972682;28;20049;-63
2022/08/29 10:48:52;;;;;;;2.88;1.48;;;;;;;;;;4914985;29;20044;-63
2022/08/29 10:52:01;;;;;;;5.97;1.30;;;;;;;;;;4914844;29;20519;-64
2022/08/29 10:54:35;;;;;;;2.05;1.20;;;;;;;;;;4915240;29;20032;-63
2022/08/29 10:57:03;;;;;;;2.70;1.30;;;;;;;;;;4915166;29;20100;-68
2022/08/29 10:59:34;;;;;;;2.45;1.30;;;;;;;;;;4915274;29;20044;-65
2022/08/29 11:02:48;;;;;;;4.53;1.52;;;;;;;;;;4915198;29;20123;-64
2022/08/29 11:05:24;;;;;;;1.80;1.13;;;;;;;;;;4913187;29;20087;-67
2022/08/29 11:08:11;;;;;;;2.83;1.17;;;;;;;;;;4914687;29;20039;-67
2022/08/29 11:10:43;;;;;;;7.47;1.80;;;;;;;;;;4948872;28;20105;-62
2022/08/29 11:13:20;;;;;;;3.58;1.33;;;;;;;;;;4972109;28;20066;-64
2022/08/29 11:15:54;;;;;;;5.90;1.70;;;;;;;;;;4972163;28;20069;-64
2022/08/29 11:18:35;;;;;;;4.15;1.33;;;;;;;;;;4971911;28;20580;-64
2022/08/29 11:21:12;;;;;;;5.63;1.65;;;;;;;;;;4970359;28;20438;-64
2022/08/29 11:23:45;;;;;;;5.65;1.80;;;;;;;;;;4952447;29;20461;-63
2022/08/29 11:26:25;;;;;;;3.30;1.70;;;;;;;;;;5000566;28;20038;-63
2022/08/29 11:29:09;;;;;;;3.75;1.75;;;;;;;;;;5013132;28;20093;-64
2022/08/29 11:31:37;;;;;;;2.42;1.55;;;;;;;;;;5012873;28;20440;-65
2022/08/29 11:34:26;;;;;;;4.53;1.65;;;;;;;;;;5012765;28;20129;-64
2022/08/29 11:37:16;;;;;;;3.22;1.40;;;;;;;;;;5012713;28;20053;-65
2022/08/29 11:40:02;;;;;;;4.47;1.70;;;;;;;;;;5012799;28;20108;-65
2022/08/29 11:42:34;;;;;;;2.63;1.50;;;;;;;;;;5016390;28;20058;-62
2022/08/29 11:45:01;;;;;;;3.28;1.60;;;;;;;;;;5052450;28;20029;-63
2022/08/29 11:47:54;;;;;;;7.63;1.80;;;;;;;;;;5052568;28;20100;-63
2022/08/29 11:50:35;;;;;;;2.55;1.20;;;;;;;;;;5052483;28;20167;-64
2022/08/29 11:53:18;;;;;;;4.60;1.55;;;;;;;;;;5052542;28;20041;-63
2022/08/29 11:56:13;;;;;;;1.77;1.20;;;;;;;;;;5052505;28;20021;-62
2022/08/29 11:58:44;;;;;;;2.33;1.33;;;;;;;;;;5052361;28;20458;-63
2022/08/29 12:01:31;;;;;;;2.15;1.33;;;;;;;;;;5052459;28;20029;-68
2022/08/29 12:03:58;;;;;;;2.95;1.60;;;;;;;;;;5052055;28;20428;-68
2022/08/29 12:06:33;;;;;;;2.30;1.35;;;;;;;;;;5052346;28;20017;-63
2022/08/29 12:09:04;;;;;;;3.47;1.40;;;;;;;;;;5052248;28;20024;-69
2022/08/29 12:11:57;;;;;;;3.83;1.60;;;;;;;;;;5052766;28;20028;-70
2022/08/29 12:14:32;;;;;;;2.00;1.27;;;;;;;;;;5052512;28;20456;-68
2022/08/29 12:17:02;;;;;;;4.47;1.55;;;;;;;;;;5052460;28;20017;-69
2022/08/29 12:20:04;;;;;;;;;;;;;;;;;;5052906;28;20439;-67
2022/08/29 12:22:50;;;;;;;2.33;1.50;;;;;;;;;;4949821;29;19957;-70
2022/08/29 12:25:43;;;;;;;2.63;1.50;;;;;;;;;;4947680;28;20069;-68
2022/08/29 12:28:14;;;;;;;2.03;1.33;;;;;;;;;;4954034;28;20480;-64
2022/08/29 12:30:46;;;;;;;3.60;1.70;;;;;;;;;;4952116;29;20071;-66
2022/08/29 12:33:24;;;;;;;4.47;1.33;;;;;;;;;;4935571;29;20519;-67
2022/08/29 12:36:08;;;;;;;2.47;1.30;;;;;;;;;;4951787;29;20593;-68
2022/08/29 12:38:39;;;;;;;1.98;1.20;;;;;;;;;;4951984;29;20098;-64
2022/08/29 12:41:27;;;;;;;2.42;1.15;;;;;;;;;;4951549;29;20035;-66
2022/08/29 12:43:57;;;;;;;1.70;1.38;;;;;;;;;;4951271;28;20051;-69
2022/08/29 12:46:35;;;;;;;3.42;1.40;;;;;;;;;;4955170;29;20133;-63
2022/08/29 12:49:15;;;;;;;2.15;1.40;;;;;;;;;;4955479;29;20193;-65
2022/08/29 12:51:46;;;;;;;2.95;1.65;;;;;;;;;;4955623;29;20493;-69
2022/08/29 12:54:11;;;;;;;2.38;1.58;;;;;;;;;;4955657;29;20035;-69
2022/08/29 12:56:42;;;;;;;3.05;1.48;;;;;;;;;;4955553;29;20491;-69
2022/08/29 12:59:16;;;;;;;3.33;1.70;;;;;;;;;;5014041;28;20041;-68
2022/08/29 13:01:46;;;;;;;5.35;1.52;;;;;;;;;;5015629;28;20030;-69
2022/08/29 13:04:16;;;;;;;3.15;1.90;;;;;;;;;;5015799;28;20026;-69
2022/08/29 13:07:00;;;;;;;3.53;1.60;;;;;;;;;;5015894;28;20037;-65
2022/08/29 13:09:39;;;;;;;3.13;1.50;;;;;;;;;;5015835;28;20113;-67
2022/08/29 13:12:10;;;;;;;2.17;1.30;;;;;;;;;;5015953;28;20116;-66
2022/08/29 13:14:57;;;;;;;3.85;1.60;;;;;;;;;;5015495;28;20058;-68
2022/08/29 13:17:45;;;;;;;3.03;1.70;;;;;;;;;;5014171;28;20392;-65
2022/08/29 13:20:47;;;;;;;3.83;1.55;;;;;;;;;;5015396;28;20050;-64
2022/08/29 13:23:48;;;;;;;2.65;1.30;;;;;;;;;;5015422;28;20388;-65
2022/08/29 13:26:13;;;;;;;4.28;1.50;;;;;;;;;;4974392;28;20053;-69
2022/08/29 13:28:49;;;;;;;1.73;1.38;;;;;;;;;;4974108;28;20117;-67
2022/08/29 13:31:15;;;;;;;4.38;2.25;;;;;;;;;;4974030;28;20034;-65
2022/08/29 13:33:50;;;;;;;2.72;1.70;;;;;;;;;;4973888;28;20454;-64
2022/08/29 13:36:44;;;;;;;2.40;1.30;;;;;;;;;;4973958;28;20080;-64
2022/08/29 13:39:23;;;;;;;2.83;1.10;;;;;;;;;;4973739;28;20031;-64
2022/08/29 13:42:02;;;;;;;1.92;1.20;;;;;;;;;;4973430;28;20098;-66
2022/08/29 13:44:43;;;;;;;2.00;1.20;;;;;;;;;;4991585;28;20034;-66
2022/08/29 13:47:18;;;;;;;1.27;1.05;;;;;;;;;;4993073;28;20444;-68
2022/08/29 13:49:43;;;;;;;2.10;1.35;;;;;;;;;;4993097;28;20462;-65
2022/08/29 13:52:10;;;;;;;3.70;1.52;;;;;;;;;;4993232;28;20053;-69
2022/08/29 13:54:39;;;;;;;2.33;1.40;;;;;;;;;;4993113;28;20042;-69
2022/08/29 13:57:05;;;;;;;4.00;1.40;;;;;;;;;;4991408;28;20064;-65
2022/08/29 13:59:33;;;;;;;1.52;1.10;;;;;;;;;;4992902;28;20136;-63
2022/08/29 14:01:59;;;;;;;2.38;1.25;;;;;;;;;;5016290;28;20515;-69
2022/08/29 14:04:26;;;;;;;1.85;1.02;;;;;;;;;;5034179;28;20508;-69
2022/08/29 14:06:54;;;;;;;1.77;1.05;;;;;;;;;;5033114;28;20034;-65
2022/08/29 14:09:36;;;;;;;3.42;1.27;;;;;;;;;;5034263;28;20029;-63
2022/08/29 14:12:02;;;;;;;1.90;1.10;;;;;;;;;;5034341;28;20408;-69
2022/08/29 14:14:28;;;;;;;1.00;0.90;;;;;;;;;;5033846;28;20030;-66
2022/08/29 14:16:55;;;;;;;2.10;1.00;;;;;;;;;;5034256;28;20021;-63
2022/08/29 14:19:25;;;;;;;1.60;1.08;;;;;;;;;;5034064;28;20025;-64
2022/08/29 14:21:51;;;;;;;3.08;1.13;;;;;;;;;;5034084;28;20033;-66
2022/08/29 14:24:17;;;;;;;1.50;1.20;;;;;;;;;;5034106;28;20030;-63
2022/08/29 14:26:42;;;;;;;2.97;1.10;;;;;;;;;;5034080;28;20029;-64
2022/08/29 14:29:09;;;;;;;2.47;1.20;;;;;;;;;;5033667;28;20029;-65
2022/08/29 14:31:34;;;;;;;1.90;1.30;;;;;;;;;;5033661;28;20025;-64
2022/08/29 14:34:00;;;;;;;2.13;1.42;;;;;;;;;;5033840;28;20037;-66
2022/08/29 14:36:26;;;;;;;2.13;1.50;;;;;;;;;;5033876;28;20037;-64
2022/08/29 14:38:51;;;;;;;2.15;1.60;;;;;;;;;;5033952;28;20021;-67
2022/08/29 14:41:17;;;;;;;2.45;1.80;;;;;;;;;;5032306;28;20029;-68
2022/08/29 14:43:42;;;;;;;2.67;1.70;;;;;;;;;;5045165;28;20029;-66
2022/08/29 14:46:08;;;;;;;4.25;1.90;;;;;;;;;;5053253;28;20025;-68
2022/08/29 14:48:34;;;;;;;3.95;2.03;;;;;;;;;;5053737;28;20028;-65
2022/08/29 14:50:59;;;;;;;2.95;1.92;;;;;;;;;;5053498;28;20476;-67
2022/08/29 14:53:25;;;;;;;3.20;1.63;;;;;;;;;;5053445;28;20479;-68
2022/08/29 14:55:51;;;;;;;3.38;2.00;;;;;;;;;;5053477;28;20495;-69
2022/08/29 14:58:17;;;;;;;3.47;2.25;;;;;;;;;;5053124;28;20108;-64
2022/08/29 15:00:42;;;;;;;2.20;1.60;;;;;;;;;;5053335;28;20021;-63